createdAt,value
2023-03-07T00:00:38.514Z,-0.80
2023-03-07T00:03:06.939Z,0.20
2023-03-07T00:05:35.364Z,-0.30
2023-03-07T00:08:05.436Z,-0.70
2023-03-07T00:10:33.772Z,-0.60
2023-03-07T00:13:02.294Z,-0.60
2023-03-07T00:15:30.624Z,0.30
2023-03-07T00:17:59.002Z,-0.20
2023-03-07T00:20:27.392Z,-0.60
2023-03-07T00:22:55.794Z,-1.30
2023-03-07T00:25:25.512Z,0.20
2023-03-07T00:27:53.910Z,0.50
2023-03-07T00:30:22.480Z,-0.70
2023-03-07T00:32:50.958Z,-0.70
2023-03-07T00:35:19.668Z,-0.80
2023-03-07T00:37:48.035Z,-0.80
2023-03-07T00:40:16.962Z,-0.70
2023-03-07T00:42:46.721Z,-0.80
2023-03-07T00:45:15.183Z,-1.00
2023-03-07T00:47:43.499Z,-0.80
2023-03-07T00:50:13.269Z,-0.70
2023-03-07T00:52:41.544Z,-1.40
2023-03-07T00:55:11.060Z,-1.00
2023-03-07T00:57:40.501Z,-1.00
2023-03-07T01:00:12.391Z,-1.10
2023-03-07T01:02:40.610Z,-1.10
2023-03-07T01:05:09.445Z,-1.30
2023-03-07T01:07:37.986Z,-1.40
2023-03-07T01:10:07.724Z,-1.30
2023-03-07T01:12:36.545Z,-1.60
2023-03-07T01:15:06.578Z,-1.50
2023-03-07T01:17:36.626Z,-1.80
2023-03-07T01:20:07.185Z,-2.20
2023-03-07T01:22:36.896Z,-2.00
2023-03-07T01:25:08.210Z,-2.20
2023-03-07T01:27:37.206Z,-2.20
2023-03-07T01:30:06.694Z,-2.20
2023-03-07T01:32:37.773Z,-2.30
2023-03-07T01:35:07.138Z,-2.30
2023-03-07T01:37:35.662Z,-2.20
2023-03-07T01:40:06.751Z,-2.20
2023-03-07T01:42:35.037Z,-2.20
2023-03-07T01:45:07.420Z,-2.00
2023-03-07T01:47:46.468Z,-1.30
2023-03-07T01:50:18.356Z,-2.10
2023-03-07T01:52:50.930Z,-2.30
2023-03-07T01:55:21.680Z,-2.40
2023-03-07T01:57:55.609Z,-2.50
2023-03-07T02:00:29.957Z,-2.30
2023-03-07T02:03:07.820Z,-2.40
2023-03-07T02:05:42.039Z,-2.30
2023-03-07T02:08:12.969Z,-2.40
2023-03-07T02:10:42.693Z,-2.40
2023-03-07T02:13:11.685Z,-2.10
2023-03-07T02:15:41.209Z,-2.60
2023-03-07T02:18:14.258Z,-2.50
2023-03-07T02:20:49.874Z,-2.60
2023-03-07T02:23:25.131Z,-1.60
2023-03-07T02:26:02.590Z,-2.90
2023-03-07T02:28:32.837Z,-1.80
2023-03-07T02:31:08.173Z,-2.60
2023-03-07T02:33:38.714Z,-2.00
2023-03-07T02:36:14.229Z,-2.60
2023-03-07T02:38:51.936Z,-2.70
2023-03-07T02:41:26.343Z,-3.00
2023-03-07T02:43:56.236Z,-2.60
2023-03-07T02:46:24.871Z,-2.80
2023-03-07T02:48:53.207Z,-3.00
2023-03-07T02:51:21.783Z,-2.40
2023-03-07T02:53:50.263Z,-2.00
2023-03-07T02:56:19.066Z,-2.90
2023-03-07T02:58:47.432Z,-2.20
2023-03-07T03:01:17.522Z,-3.10
2023-03-07T03:03:45.839Z,-3.10
2023-03-07T03:06:15.869Z,-2.40
2023-03-07T03:08:44.228Z,-3.60
2023-03-07T03:11:12.717Z,-2.30
2023-03-07T03:13:41.619Z,-2.40
2023-03-07T03:16:10.171Z,-3.10
2023-03-07T03:18:40.074Z,-3.30
2023-03-07T03:21:12.023Z,-3.30
2023-03-07T03:23:40.898Z,-3.70
2023-03-07T03:26:11.711Z,-3.40
2023-03-07T03:28:41.230Z,-2.40
2023-03-07T03:31:11.878Z,-3.40
2023-03-07T03:33:44.058Z,-2.00
2023-03-07T03:36:14.373Z,-3.50
2023-03-07T03:38:43.699Z,-3.50
2023-03-07T03:41:15.910Z,-2.70
2023-03-07T03:43:45.079Z,-2.20
2023-03-07T03:46:13.742Z,-3.10
2023-03-07T03:48:43.641Z,-2.60
2023-03-07T03:51:14.553Z,-1.80
2023-03-07T03:53:43.010Z,-2.60
2023-03-07T03:56:13.113Z,-3.50
2023-03-07T03:58:43.425Z,-3.50
2023-03-07T04:01:14.175Z,-3.50
2023-03-07T04:03:45.738Z,-3.10
2023-03-07T04:06:16.454Z,-2.10
2023-03-07T04:08:46.449Z,-3.40
2023-03-07T04:11:15.383Z,-2.30
2023-03-07T04:13:44.273Z,-2.90
2023-03-07T04:16:13.265Z,-3.30
2023-03-07T04:18:43.151Z,-3.60
2023-03-07T04:21:13.029Z,-3.90
2023-03-07T04:23:42.616Z,-3.40
2023-03-07T04:26:12.157Z,-3.10
2023-03-07T04:28:46.044Z,-3.50
2023-03-07T04:31:20.385Z,-2.50
2023-03-07T04:33:50.953Z,-2.50
2023-03-07T04:36:20.304Z,-3.50
2023-03-07T04:38:50.282Z,-2.50
2023-03-07T04:41:21.942Z,-2.30
2023-03-07T04:43:53.583Z,-3.40
2023-03-07T04:46:24.031Z,-2.90
2023-03-07T04:48:54.116Z,-2.40
2023-03-07T04:51:22.963Z,-2.80
2023-03-07T04:53:51.865Z,-3.50
2023-03-07T04:56:20.528Z,-2.90
2023-03-07T04:58:49.404Z,-2.90
2023-03-07T05:01:20.335Z,-2.90
2023-03-07T05:03:49.922Z,-3.10
2023-03-07T05:06:22.081Z,-2.40
2023-03-07T05:08:52.552Z,-3.40
2023-03-07T05:11:21.209Z,-2.70
2023-03-07T05:13:50.852Z,-3.30
2023-03-07T05:16:21.846Z,-2.90
2023-03-07T05:18:50.556Z,-3.40
2023-03-07T05:21:19.522Z,-3.00
2023-03-07T05:23:51.607Z,-3.30
2023-03-07T05:26:20.276Z,-3.10
2023-03-07T05:28:49.581Z,-3.60
2023-03-07T05:31:18.622Z,-2.40
2023-03-07T05:33:47.684Z,-3.00
2023-03-07T05:36:16.882Z,-3.50
2023-03-07T05:38:45.176Z,-3.50
2023-03-07T05:41:14.989Z,-3.40
2023-03-07T05:43:45.189Z,-3.20
2023-03-07T05:46:13.638Z,-2.30
2023-03-07T05:48:45.257Z,-2.90
2023-03-07T05:51:13.991Z,-3.20
2023-03-07T05:53:43.237Z,-2.80
2023-03-07T05:56:11.650Z,-3.00
2023-03-07T05:58:41.813Z,-2.90
2023-03-07T06:01:10.907Z,-2.90
2023-03-07T06:03:39.311Z,-3.00
2023-03-07T06:06:08.436Z,-0.80
2023-03-07T06:08:36.838Z,-2.90
2023-03-07T06:11:05.464Z,-2.70
2023-03-07T06:13:36.868Z,-2.80
2023-03-07T06:16:07.152Z,-2.00
2023-03-07T06:18:36.206Z,-2.80
2023-03-07T06:21:06.534Z,-2.70
2023-03-07T06:23:40.114Z,-2.50
2023-03-07T06:26:13.545Z,-2.50
2023-03-07T06:28:44.082Z,-2.30
2023-03-07T06:31:17.935Z,-1.20
2023-03-07T06:33:47.753Z,-1.90
2023-03-07T06:36:19.552Z,-1.80
2023-03-07T06:38:51.867Z,-1.70
2023-03-07T06:41:21.560Z,-1.70
2023-03-07T06:43:52.987Z,-2.00
2023-03-07T06:46:28.354Z,-1.60
2023-03-07T06:48:57.635Z,-0.80
2023-03-07T06:51:26.837Z,-1.60
2023-03-07T06:53:58.102Z,-1.20
2023-03-07T06:56:29.847Z,-2.50
2023-03-07T06:58:58.940Z,-2.00
2023-03-07T07:01:29.109Z,-1.20
2023-03-07T07:03:59.364Z,-1.50
2023-03-07T07:06:29.253Z,-3.70
2023-03-07T07:08:58.547Z,-1.80
2023-03-07T07:11:31.026Z,-1.60
2023-03-07T07:14:00.957Z,-1.30
2023-03-07T07:16:33.705Z,-1.30
2023-03-07T07:19:02.506Z,-1.00
2023-03-07T07:21:30.848Z,-0.80
2023-03-07T07:24:01.809Z,-0.50
2023-03-07T07:26:30.640Z,-1.40
2023-03-07T07:29:00.819Z,-1.20
2023-03-07T07:31:31.127Z,-0.90
2023-03-07T07:34:02.025Z,-0.90
2023-03-07T07:36:34.409Z,-1.00
2023-03-07T07:39:05.248Z,-1.40
2023-03-07T07:41:35.485Z,-1.30
2023-03-07T07:44:04.266Z,-1.30
2023-03-07T07:46:54.490Z,-1.20
2023-03-07T07:49:23.048Z,-0.90
2023-03-07T07:51:52.010Z,-1.20
2023-03-07T07:54:20.635Z,0.10
2023-03-07T07:56:50.578Z,-1.20
2023-03-07T07:59:19.796Z,-0.50
2023-03-07T08:01:48.665Z,-0.90
2023-03-07T08:04:18.595Z,-1.20
2023-03-07T08:06:47.022Z,-0.50
2023-03-07T08:09:15.921Z,-0.90
2023-03-07T08:11:44.298Z,-1.20
2023-03-07T08:14:14.219Z,-0.70
2023-03-07T08:16:42.559Z,-1.00
2023-03-07T08:19:11.252Z,-0.50
2023-03-07T08:21:41.155Z,0.10
2023-03-07T08:24:09.647Z,0.20
2023-03-07T08:26:38.064Z,-0.80
2023-03-07T08:29:06.470Z,-1.00
2023-03-07T08:31:34.875Z,-1.20
2023-03-07T08:34:03.261Z,-0.50
2023-03-07T08:36:31.685Z,-1.30
2023-03-07T08:39:01.393Z,-1.00
2023-03-07T08:41:29.843Z,-0.50
2023-03-07T08:43:58.146Z,-0.90
2023-03-07T08:46:26.582Z,-0.90
2023-03-07T08:48:54.905Z,-0.20
2023-03-07T08:51:23.270Z,-0.80
2023-03-07T08:53:51.677Z,-1.10
2023-03-07T08:56:22.086Z,-0.70
2023-03-07T08:58:53.795Z,-0.50
2023-03-07T09:01:22.321Z,-0.40
2023-03-07T09:03:50.861Z,-0.20
2023-03-07T09:06:21.207Z,-0.10
2023-03-07T09:08:50.381Z,-0.30
2023-03-07T09:11:21.740Z,0.40
2023-03-07T09:13:52.713Z,0.10
2023-03-07T09:16:22.198Z,0.20
2023-03-07T09:18:50.503Z,0.40
2023-03-07T09:21:18.823Z,0.40
2023-03-07T09:23:47.269Z,0.40
2023-03-07T09:26:15.797Z,1.20
2023-03-07T09:28:45.495Z,0.90
2023-03-07T09:31:18.579Z,1.50
2023-03-07T09:33:47.314Z,0.40
2023-03-07T09:36:18.103Z,0.90
2023-03-07T09:38:48.091Z,1.80
2023-03-07T09:41:36.799Z,0.50
2023-03-07T09:44:18.149Z,1.20
2023-03-07T09:47:28.254Z,1.40
2023-03-07T09:49:57.216Z,1.20
2023-03-07T09:52:32.460Z,1.40
2023-03-07T09:55:05.019Z,1.90
2023-03-07T09:57:35.406Z,1.50
2023-03-07T10:00:18.711Z,1.70
2023-03-07T10:02:51.284Z,1.50
2023-03-07T10:05:31.577Z,2.40
2023-03-07T10:08:02.289Z,1.80
2023-03-07T10:10:38.412Z,1.90
2023-03-07T10:13:20.195Z,2.70
2023-03-07T10:15:55.452Z,2.90
2023-03-07T10:18:35.799Z,2.70
2023-03-07T10:21:12.608Z,2.50
2023-03-07T10:24:13.872Z,2.20
2023-03-07T10:26:51.778Z,2.50
2023-03-07T10:29:24.315Z,2.60
2023-03-07T10:31:58.043Z,4.10
2023-03-07T10:34:31.339Z,2.00
2023-03-07T10:37:09.022Z,2.60
2023-03-07T10:39:44.837Z,3.20
2023-03-07T10:42:15.170Z,2.50
2023-03-07T10:44:46.205Z,2.80
2023-03-07T10:47:21.700Z,2.60
2023-03-07T10:49:52.517Z,2.10
2023-03-07T10:52:31.854Z,2.30
2023-03-07T10:55:33.622Z,2.80
2023-03-07T10:58:20.913Z,2.80
2023-03-07T11:01:04.102Z,2.60
2023-03-07T11:03:52.508Z,2.70
2023-03-07T11:06:34.602Z,3.00
2023-03-07T11:09:20.608Z,3.00
2023-03-07T11:12:12.959Z,2.70
2023-03-07T11:14:49.352Z,3.50
2023-03-07T11:17:24.884Z,3.70
2023-03-07T11:19:56.601Z,3.70
2023-03-07T11:22:28.974Z,3.40
2023-03-07T11:25:04.614Z,4.50
2023-03-07T11:27:40.144Z,3.80
2023-03-07T11:30:20.064Z,4.40
2023-03-07T11:33:03.366Z,4.30
2023-03-07T11:35:50.812Z,4.30
2023-03-07T11:38:31.776Z,4.10
2023-03-07T11:41:07.174Z,4.90
2023-03-07T11:43:49.041Z,4.70
2023-03-07T11:46:28.320Z,4.30
2023-03-07T11:49:08.380Z,4.60
2023-03-07T11:52:14.286Z,4.90
2023-03-07T11:54:49.764Z,5.00
2023-03-07T11:57:31.812Z,4.90
2023-03-07T12:00:21.152Z,5.40
2023-03-07T12:03:02.327Z,5.10
2023-03-07T12:05:39.525Z,5.50
2023-03-07T12:08:47.415Z,5.20
2023-03-07T12:11:29.604Z,5.20
2023-03-07T12:14:04.200Z,4.80
2023-03-07T12:16:42.576Z,5.40
2023-03-07T12:19:32.950Z,5.40
2023-03-07T12:22:25.226Z,5.60
2023-03-07T12:25:09.865Z,5.80
2023-03-07T12:27:43.163Z,5.20
2023-03-07T12:30:18.216Z,5.40
2023-03-07T12:32:47.260Z,5.30
2023-03-07T12:35:24.628Z,5.50
2023-03-07T12:38:02.085Z,5.50
2023-03-07T12:40:42.178Z,5.30
2023-03-07T12:43:19.679Z,5.20
2023-03-07T12:45:51.748Z,5.20
2023-03-07T12:48:25.809Z,4.90
2023-03-07T12:51:01.485Z,5.30
2023-03-07T12:53:36.984Z,4.50
2023-03-07T12:56:16.452Z,5.60
2023-03-07T12:58:50.197Z,5.40
2023-03-07T13:01:22.678Z,5.60
2023-03-07T13:03:58.044Z,5.50
2023-03-07T13:06:27.766Z,6.00
2023-03-07T13:08:59.794Z,5.60
2023-03-07T13:11:33.868Z,6.00
2023-03-07T13:14:02.815Z,5.80
2023-03-07T13:16:49.381Z,6.00
2023-03-07T13:19:43.770Z,5.70
2023-03-07T13:22:49.448Z,5.50
2023-03-07T13:25:51.902Z,5.40
2023-03-07T13:28:39.822Z,5.40
2023-03-07T13:31:31.279Z,5.30
2023-03-07T13:34:41.499Z,5.30
2023-03-07T13:37:52.095Z,5.20
2023-03-07T13:40:30.533Z,5.10
2023-03-07T13:42:59.223Z,5.00
2023-03-07T13:45:53.048Z,5.30
2023-03-07T13:48:59.847Z,5.00
2023-03-07T13:51:29.953Z,4.80
2023-03-07T13:54:03.023Z,4.80
2023-03-07T13:56:36.352Z,5.00
2023-03-07T13:59:15.738Z,4.60
2023-03-07T14:01:50.198Z,4.30
2023-03-07T14:04:38.337Z,4.40
2023-03-07T14:07:16.546Z,4.60
2023-03-07T14:09:48.074Z,4.40
2023-03-07T14:12:24.906Z,4.40
2023-03-07T14:15:18.444Z,4.20
2023-03-07T14:18:03.617Z,4.30
2023-03-07T14:20:48.481Z,4.80
2023-03-07T14:23:30.134Z,4.70
2023-03-07T14:26:09.981Z,4.30
2023-03-07T14:28:48.155Z,4.50
2023-03-07T14:31:25.311Z,4.30
2023-03-07T14:33:55.878Z,4.60
2023-03-07T14:36:26.180Z,4.40
2023-03-07T14:38:57.886Z,4.40
2023-03-07T14:41:45.632Z,4.20
2023-03-07T14:44:53.669Z,4.80
2023-03-07T14:47:39.013Z,4.00
2023-03-07T14:50:15.897Z,4.30
2023-03-07T14:52:45.204Z,3.80
2023-03-07T14:55:19.424Z,4.00
2023-03-07T14:57:52.742Z,4.80
2023-03-07T15:00:28.451Z,4.00
2023-03-07T15:02:58.781Z,4.00
2023-03-07T15:05:34.558Z,4.10
2023-03-07T15:08:03.154Z,4.10
2023-03-07T15:10:36.398Z,4.30
2023-03-07T15:13:13.825Z,4.20
2023-03-07T15:15:47.079Z,4.50
2023-03-07T15:18:22.341Z,3.40
2023-03-07T15:20:54.680Z,4.60
2023-03-07T15:23:24.794Z,4.20
2023-03-07T15:25:55.177Z,4.60
2023-03-07T15:28:28.339Z,4.20
2023-03-07T15:30:57.511Z,4.20
2023-03-07T15:33:27.641Z,4.30
2023-03-07T15:36:20.818Z,4.30
2023-03-07T15:38:51.249Z,4.10
2023-03-07T15:41:31.741Z,4.20
2023-03-07T15:44:27.140Z,4.20
2023-03-07T15:46:58.981Z,4.30
2023-03-07T15:49:32.920Z,4.20
2023-03-07T15:52:02.965Z,4.20
2023-03-07T15:54:36.459Z,4.20
2023-03-07T15:57:07.324Z,4.20
2023-03-07T15:59:39.229Z,4.20
2023-03-07T16:02:36.948Z,4.90
2023-03-07T16:05:07.382Z,4.10
2023-03-07T16:07:37.156Z,4.10
2023-03-07T16:10:06.266Z,4.20
2023-03-07T16:12:34.920Z,4.00
2023-03-07T16:15:04.415Z,4.40
2023-03-07T16:17:36.816Z,3.90
2023-03-07T16:20:06.334Z,3.80
2023-03-07T16:22:36.058Z,3.90
2023-03-07T16:25:05.780Z,3.50
2023-03-07T16:27:34.395Z,3.80
2023-03-07T16:30:03.008Z,4.20
2023-03-07T16:32:31.495Z,3.80
2023-03-07T16:34:59.871Z,3.80
2023-03-07T16:37:28.808Z,3.90
2023-03-07T16:39:58.507Z,4.60
2023-03-07T16:42:26.810Z,4.00
2023-03-07T16:44:55.167Z,4.00
2023-03-07T16:47:23.602Z,4.00
2023-03-07T16:49:52.171Z,4.50
2023-03-07T16:52:23.638Z,4.10
2023-03-07T16:54:51.838Z,4.30
2023-03-07T16:57:25.925Z,4.10
2023-03-07T16:59:54.502Z,4.30
2023-03-07T17:02:24.399Z,4.40
2023-03-07T17:04:52.724Z,4.60
2023-03-07T17:07:23.477Z,4.40
2023-03-07T17:09:52.078Z,4.50
2023-03-07T17:12:24.229Z,4.20
2023-03-07T17:14:53.615Z,4.20
2023-03-07T17:17:30.085Z,4.20
2023-03-07T17:19:58.501Z,4.10
2023-03-07T17:22:27.117Z,4.10
2023-03-07T17:24:55.489Z,4.50
2023-03-07T17:27:25.293Z,4.20
2023-03-07T17:29:55.212Z,4.20
2023-03-07T17:32:23.782Z,4.10
2023-03-07T17:34:52.155Z,4.60
2023-03-07T17:37:20.583Z,3.90
2023-03-07T17:39:48.849Z,3.90
2023-03-07T17:42:17.299Z,3.90
2023-03-07T17:44:46.966Z,3.90
2023-03-07T17:47:15.484Z,3.80
2023-03-07T17:49:45.756Z,4.00
2023-03-07T17:52:15.038Z,3.90
2023-03-07T17:54:45.845Z,3.80
2023-03-07T17:57:14.343Z,4.10
2023-03-07T17:59:43.117Z,3.60
2023-03-07T18:02:13.501Z,3.80
2023-03-07T18:04:41.812Z,3.60
2023-03-07T18:07:10.551Z,3.80
2023-03-07T18:09:39.314Z,3.60
2023-03-07T18:12:08.337Z,4.50
2023-03-07T18:14:36.844Z,3.80
2023-03-07T18:17:05.152Z,3.80
2023-03-07T18:19:35.394Z,4.10
2023-03-07T18:22:04.751Z,5.00
2023-03-07T18:24:33.630Z,4.60
2023-03-07T18:27:03.532Z,3.90
2023-03-07T18:29:31.913Z,3.80
2023-03-07T18:32:00.909Z,3.90
2023-03-07T18:34:29.497Z,4.60
2023-03-07T18:36:59.420Z,4.20
2023-03-07T18:39:27.739Z,3.80
2023-03-07T18:41:56.038Z,4.40
2023-03-07T18:44:24.392Z,4.00
2023-03-07T18:46:52.696Z,3.80
2023-03-07T18:49:20.996Z,4.20
2023-03-07T18:51:49.440Z,3.50
2023-03-07T18:54:19.089Z,4.40
2023-03-07T18:56:48.157Z,3.70
2023-03-07T18:59:19.277Z,3.80
2023-03-07T19:01:50.295Z,5.10
2023-03-07T19:04:19.511Z,4.10
2023-03-07T19:06:48.633Z,4.70
2023-03-07T19:09:20.305Z,4.10
2023-03-07T19:11:49.299Z,4.30
2023-03-07T19:14:17.868Z,4.40
2023-03-07T19:16:46.324Z,4.50
2023-03-07T19:19:14.805Z,4.40
2023-03-07T19:21:43.097Z,4.30
2023-03-07T19:24:13.266Z,4.00
2023-03-07T19:26:43.469Z,4.60
2023-03-07T19:29:13.152Z,4.70
2023-03-07T19:31:43.982Z,4.10
2023-03-07T19:34:12.489Z,4.80
2023-03-07T19:36:41.676Z,4.00
2023-03-07T19:39:15.051Z,4.00
2023-03-07T19:41:48.009Z,4.20
2023-03-07T19:44:17.083Z,4.30
2023-03-07T19:46:47.397Z,4.00
2023-03-07T19:49:16.475Z,3.50
2023-03-07T19:51:44.931Z,4.20
2023-03-07T19:54:15.044Z,4.10
2023-03-07T19:56:45.772Z,3.70
2023-03-07T19:59:14.543Z,4.60
2023-03-07T20:01:46.618Z,3.80
2023-03-07T20:04:16.855Z,4.10
2023-03-07T20:06:46.099Z,4.20
2023-03-07T20:09:15.169Z,3.80
2023-03-07T20:11:45.316Z,4.40
2023-03-07T20:14:14.367Z,4.50
2023-03-07T20:16:42.956Z,3.80
2023-03-07T20:19:11.627Z,4.20
2023-03-07T20:21:40.379Z,4.00
2023-03-07T20:24:09.537Z,4.10
2023-03-07T20:26:40.725Z,3.70
2023-03-07T20:29:11.529Z,4.10
2023-03-07T20:31:40.691Z,3.60
2023-03-07T20:34:09.832Z,3.80
2023-03-07T20:36:39.086Z,4.20
2023-03-07T20:39:09.791Z,3.90
2023-03-07T20:41:38.210Z,4.00
2023-03-07T20:44:08.020Z,3.70
2023-03-07T20:46:40.110Z,4.00
2023-03-07T20:49:09.094Z,4.10
2023-03-07T20:51:39.216Z,4.00
2023-03-07T20:54:09.879Z,4.50
2023-03-07T20:56:39.760Z,3.70
2023-03-07T20:59:09.426Z,4.10
2023-03-07T21:01:39.478Z,4.10
2023-03-07T21:04:11.489Z,4.10
2023-03-07T21:06:43.595Z,4.60
2023-03-07T21:09:16.075Z,4.60
2023-03-07T21:11:46.417Z,4.10
2023-03-07T21:14:15.785Z,4.10
2023-03-07T21:16:45.579Z,4.50
2023-03-07T21:19:14.127Z,5.10
2023-03-07T21:21:42.860Z,4.40
2023-03-07T21:24:14.193Z,4.80
2023-03-07T21:26:42.702Z,4.60
2023-03-07T21:29:11.239Z,5.00
2023-03-07T21:31:39.759Z,4.50
2023-03-07T21:34:13.420Z,4.70
2023-03-07T21:36:42.398Z,4.80
2023-03-07T21:39:11.986Z,4.20
2023-03-07T21:41:40.616Z,4.40
2023-03-07T21:44:09.171Z,3.90
2023-03-07T21:46:37.515Z,4.10
2023-03-07T21:49:05.980Z,3.80
2023-03-07T21:51:35.922Z,4.00
2023-03-07T21:54:04.362Z,3.90
2023-03-07T21:56:32.747Z,4.00
2023-03-07T21:59:05.973Z,4.00
2023-03-07T22:01:34.402Z,4.90
2023-03-07T22:04:02.927Z,3.70
2023-03-07T22:06:31.554Z,3.80
2023-03-07T22:09:01.688Z,3.40
2023-03-07T22:11:30.057Z,3.30
2023-03-07T22:13:59.350Z,3.10
2023-03-07T22:16:27.689Z,2.80
2023-03-07T22:19:01.905Z,2.30
2023-03-07T22:21:30.299Z,2.00
2023-03-07T22:24:01.474Z,3.20
2023-03-07T22:26:32.789Z,2.00
2023-03-07T22:29:01.212Z,1.60
2023-03-07T22:31:29.964Z,2.00
2023-03-07T22:34:03.008Z,1.70
2023-03-07T22:36:31.313Z,0.90
2023-03-07T22:38:59.664Z,1.00
2023-03-07T22:41:28.040Z,1.40
2023-03-07T22:43:57.849Z,1.60
2023-03-07T22:46:26.472Z,1.60
2023-03-07T22:48:55.633Z,1.80
2023-03-07T22:51:25.136Z,0.80
2023-03-07T22:53:53.800Z,1.20
2023-03-07T22:56:23.565Z,1.20
2023-03-07T22:58:52.151Z,1.40
2023-03-07T23:01:23.641Z,1.10
2023-03-07T23:03:55.190Z,1.00
2023-03-07T23:06:24.924Z,1.90
2023-03-07T23:08:54.688Z,0.90
2023-03-07T23:11:24.938Z,0.90
2023-03-07T23:13:54.134Z,1.50
2023-03-07T23:16:25.386Z,1.10
2023-03-07T23:18:55.478Z,0.80
2023-03-07T23:21:26.601Z,1.20
2023-03-07T23:23:55.819Z,2.30
2023-03-07T23:26:27.079Z,0.40
2023-03-07T23:28:56.035Z,0.80
2023-03-07T23:31:27.839Z,1.40
2023-03-07T23:33:57.355Z,1.30
2023-03-07T23:36:26.016Z,1.10
2023-03-07T23:38:54.578Z,0.80
2023-03-07T23:41:23.823Z,0.60
2023-03-07T23:43:52.795Z,0.70
2023-03-07T23:46:22.905Z,1.20
2023-03-07T23:48:52.892Z,-0.10
2023-03-07T23:51:22.074Z,1.50
2023-03-07T23:53:52.753Z,0.70
2023-03-07T23:56:21.209Z,0.30
2023-03-07T23:58:51.150Z,1.70
